Date,TemperatureHighF,TemperatureAvgF,TemperatureLowF,DewpointHighF,DewpointAvgF,DewpointLowF,HumidityHigh,HumidityAvg,HumidityLow,PressureMaxIn,PressureMinIn,WindSpeedMaxMPH,WindSpeedAvgMPH,GustSpeedMaxMPH,PrecipitationSumIn
2013-1-1,32,26,18,22,16,8,73,63,50,30.13,30.03,14,3,14,0.00
2013-1-2,27,18,14,12,7,2,69,61,51,30.18,30.10,11,4,11,0.01
2013-1-3,31,23,12,23,14,0,77,66,54,30.20,30.08,15,5,15,0.00
2013-1-4,31,24,16,19,14,6,76,66,56,30.21,30.11,22,8,22,0.00
2013-1-5,35,28,18,30,21,12,88,74,57,30.23,30.00,17,4,17,0.00
2013-1-6,36,34,29,30,27,22,82,77,67,30.27,29.90,19,6,19,0.00
2013-1-7,37,29,20,26,21,16,85,72,57,30.35,30.12,21,6,21,0.00
2013-1-8,41,32,25,28,23,18,78,70,60,30.21,30.08,12,4,12,0.00
2013-1-9,50,39,30,34,27,21,76,63,35,30.43,30.03,17,6,17,0.00
2013-1-10,42,33,24,36,26,19,95,74,58,30.49,30.02,17,3,17,0.38
2013-1-11,56,49,37,52,46,36,99,89,78,30.03,29.73,21,6,21,0.39
2013-1-12,60,51,40,50,45,37,94,80,61,30.57,29.78,13,4,13,0.18
2013-1-13,40,34,23,38,31,16,95,89,74,30.13,29.78,14,3,14,0.26
2013-1-14,25,21,17,17,13,10,76,71,61,30.41,30.13,0,0,0,0.00
2013-1-15,32,22,14,20,14,8,82,70,56,30.38,30.11,8,1,8,0.01
2013-1-16,37,28,18,25,18,13,85,67,41,30.11,29.84,21,5,21,0.02
2013-1-17,36,31,23,26,19,10,77,61,46,30.32,29.99,21,6,21,0.01
2013-1-18,39,29,22,26,16,10,67,58,51,30.38,29.97,24,7,24,0.00
2013-1-19,49,44,37,36,32,26,72,63,54,29.97,29.71,26,10,26,0.00
2013-1-20,42,22,18,30,8,3,64,55,34,30.21,29.72,33,10,33,0.00
2013-1-21,20,14,9,7,2,-6,74,57,35,30.15,30.03,22,9,22,0.01
2013-1-22,13,8,3,1,-4,-11,70,58,38,30.28,30.14,15,6,15,0.00
2013-1-23,18,14,8,13,1,-6,78,57,43,30.26,30.04,14,6,14,0.00
2013-1-24,21,13,3,10,-1,-6,76,54,31,30.56,30.13,10,2,10,0.00
2013-1-25,25,21,17,18,10,-2,76,62,43,30.39,29.96,12,4,12,0.00
2013-1-26,30,25,21,19,16,14,79,67,57,30.39,30.03,11,3,11,0.00
2013-1-27,34,27,19,31,19,14,90,71,59,30.39,30.00,18,4,18,0.01
2013-1-28,50,42,34,49,42,31,99,97,89,30.01,29.85,14,4,14,0.15
2013-1-29,58,54,39,57,53,39,99,97,90,29.93,29.40,19,7,19,1.00
2013-1-30,54,45,28,53,44,23,99,93,76,29.46,29.16,28,6,28,0.74
2013-1-31,28,19,13,24,12,-8,84,73,29,29.98,29.46,24,10,24,0.00
2013-2-1,14,10,5,7,0,-5,78,63,47,30.29,29.98,21,7,21,0.00
2013-2-2,26,19,11,20,11,2,85,71,59,30.18,29.92,11,4,11,0.00
2013-2-3,23,18,14,17,9,4,80,68,59,30.01,29.90,14,4,14,0.00
2013-2-4,26,22,18,19,17,8,85,78,63,30.01,29.82,8,2,8,0.00
2013-2-5,32,24,13,27,19,8,89,80,64,29.98,29.78,16,4,16,0.01
2013-2-6,37,30,23,24,19,16,81,64,44,30.23,29.98,11,3,11,0.13
2013-2-7,44,34,26,32,25,18,92,70,54,30.17,29.78,10,3,10,0.15
2013-2-8,34,31,25,32,24,18,93,76,58,30.32,29.79,14,3,14,0.00
2013-2-9,38,27,16,23,18,11,84,68,49,30.38,30.15,14,3,14,0.00
2013-2-10,47,37,27,46,30,18,98,76,63,30.15,29.59,14,5,14,0.06
2013-2-11,49,37,31,46,27,20,94,65,59,29.95,29.56,30,13,30,0.02
2013-2-12,36,30,28,22,20,18,71,66,52,30.07,29.92,17,6,17,0.00
2013-2-13,46,32,21,29,22,16,83,68,48,29.92,29.71,14,2,14,0.00
2013-2-14,41,36,32,34,28,19,83,72,52,29.92,29.68,22,7,22,0.00
2013-2-15,34,28,23,24,17,11,77,63,46,30.13,29.91,13,4,13,0.00
2013-2-16,25,20,15,17,10,2,79,63,46,30.09,30.03,21,5,21,0.00
2013-2-17,31,21,14,13,8,4,75,59,36,30.18,30.08,11,2,11,0.01
2013-2-18,53,39,24,44,26,9,89,61,47,30.10,29.48,24,8,24,0.06
2013-2-19,45,23,15,42,15,5,91,72,56,30.03,29.44,24,7,24,0.05
2013-2-20,24,20,16,16,12,8,76,70,61,30.28,30.03,16,7,16,0.00
2013-2-21,28,24,20,16,14,12,74,66,59,30.33,30.06,18,5,18,0.00
2013-2-22,34,28,21,32,23,12,91,82,66,30.07,29.82,16,6,18,0.00
2013-2-23,32,28,26,22,18,15,75,65,54,29.94,29.88,17,7,17,0.02
2013-2-24,41,30,24,23,19,16,81,65,47,30.13,29.91,11,4,11,0.08
2013-2-25,43,32,19,26,22,15,86,68,46,30.18,30.00,11,2,11,0.00
2013-2-26,35,33,31,32,26,21,94,77,57,30.00,29.45,25,7,25,0.25
2013-2-27,36,34,33,33,32,31,95,92,85,29.59,29.45,11,2,11,0.37
2013-2-28,39,35,32,32,30,27,94,83,70,29.95,29.58,14,5,14,0.09
2013-3-1,35,31,26,27,21,14,81,66,53,30.11,29.95,11,5,11,0.00
2013-3-2,34,28,25,18,15,11,64,58,48,30.10,30.04,13,4,13,0.00
2013-3-3,34,27,21,18,12,8,66,55,38,30.08,30.01,14,4,14,0.00
2013-3-4,36,27,17,20,14,9,80,58,37,30.11,30.01,9,2,9,0.00
2013-3-5,34,30,27,28,23,19,95,75,59,30.04,29.75,15,6,15,0.00
2013-3-6,36,31,26,31,27,24,92,84,69,30.22,29.84,12,4,12,0.06
2013-3-7,39,34,24,30,25,18,88,72,53,30.38,30.20,13,3,13,0.00
2013-3-8,44,30,17,24,19,12,85,64,42,30.46,30.35,8,2,8,0.00
2013-3-9,45,36,25,33,26,16,76,65,51,30.35,29.93,14,4,14,0.00
2013-3-10,60,50,38,43,38,32,92,65,52,29.93,29.70,16,4,16,0.07
2013-3-11,55,46,35,49,41,28,97,85,54,29.73,29.52,20,7,20,0.05
2013-3-12,37,33,30,30,26,20,91,76,52,29.93,29.73,17,8,17,0.00
2013-3-13,33,27,24,26,18,9,87,68,45,30.25,29.92,21,6,21,0.01
2013-3-14,43,32,20,25,16,9,69,54,34,30.27,30.09,11,4,11,0.00
2013-3-15,48,38,31,40,32,26,96,79,57,30.09,29.78,11,4,11,0.06
2013-3-16,39,34,29,38,30,19,97,84,65,30.06,29.65,14,5,14,0.00
2013-3-17,38,31,28,22,18,15,70,58,42,30.19,30.05,19,5,19,0.00
2013-3-18,35,31,28,33,26,16,92,81,60,30.05,29.57,22,6,22,0.06
2013-3-19,35,28,20,20,11,7,67,51,32,30.00,29.72,30,12,30,0.01
2013-3-20,30,23,18,14,9,2,75,55,40,30.00,29.95,19,8,19,0.00
2013-3-21,32,24,16,19,13,9,82,65,46,29.99,29.91,21,5,21,0.02
2013-3-22,41,30,20,19,14,4,75,53,25,30.04,29.96,17,4,17,0.00
2013-3-23,40,30,23,23,19,15,80,62,46,30.11,29.98,14,3,14,0.00
2013-3-24,38,32,28,23,21,18,75,63,48,29.99,29.59,23,8,23,0.00
2013-3-25,37,33,29,28,24,19,88,70,55,29.95,29.58,19,6,19,0.02
2013-3-26,38,35,34,28,25,22,77,68,56,30.17,29.70,15,6,15,0.02
2013-3-27,45,37,29,32,24,15,84,61,33,30.26,30.17,20,5,20,0.00
2013-3-28,52,38,25,27,19,14,73,48,27,30.29,30.24,13,3,13,0.00
2013-3-29,54,39,25,27,18,13,80,48,22,30.29,30.20,16,2,16,0.00
2013-3-30,57,42,25,32,24,16,76,52,31,30.22,29.90,14,3,14,0.00
2013-3-31,62,49,40,45,35,26,97,61,27,29.90,29.67,21,6,21,0.01
2013-4-1,40,34,28,29,15,6,70,46,27,30.11,29.79,22,6,22,0.00
2013-4-2,43,33,23,18,11,4,65,42,24,30.25,30.11,21,5,21,0.00
2013-4-3,49,38,23,17,12,6,63,36,22,30.40,30.25,11,3,11,0.00
2013-4-4,58,42,25,24,17,11,58,39,22,31.00,29.95,14,3,14,0.00
2013-4-5,53,43,34,31,23,15,70,47,23,30.18,29.93,14,4,14,0.00
2013-4-6,65,50,34,40,28,22,64,45,28,30.15,29.71,24,8,24,0.00
2013-4-7,62,54,44,50,41,34,83,63,45,29.97,29.64,27,7,27,0.02
2013-4-8,71,52,43,57,43,33,95,73,52,29.98,29.67,31,6,31,0.11
2013-4-9,76,58,43,60,49,39,91,74,51,30.00,29.81,20,4,20,0.00
2013-4-10,56,48,42,51,46,41,99,92,82,29.93,29.80,17,5,17,0.19
2013-4-11,44,42,40,43,42,40,99,98,94,29.95,29.57,20,6,20,1.55
2013-4-12,44,40,38,40,37,32,99,87,72,29.81,29.56,18,7,18,0.18
2013-4-13,44,39,35,34,30,27,90,71,53,29.97,29.81,17,6,17,0.07
2013-4-14,61,48,38,46,37,29,78,67,53,30.02,29.80,17,5,17,0.00
2013-4-15,64,58,49,57,50,43,94,77,67,29.92,29.79,22,5,22,0.05
2013-4-16,55,48,43,47,40,30,98,75,42,30.22,29.92,11,4,11,0.28
2013-4-17,55,49,44,46,40,34,97,72,57,30.24,29.89,21,6,21,0.64
2013-4-18,72,59,47,66,57,46,98,92,77,29.89,29.51,27,7,27,0.66
2013-4-19,60,41,35,59,35,27,98,79,61,29.83,29.48,31,11,31,0.47
2013-4-20,43,37,31,30,20,13,83,53,31,30.41,29.83,18,6,18,0.00
2013-4-21,53,40,24,30,23,17,75,53,36,30.52,30.37,14,4,14,0.00
2013-4-22,66,54,33,41,30,25,76,44,25,30.37,30.10,12,4,12,0.00
2013-4-23,68,56,41,57,48,39,99,78,55,30.10,29.83,21,6,21,0.37
2013-4-24,47,40,36,41,32,22,99,74,40,30.13,29.82,21,6,21,0.17
2013-4-25,51,45,36,38,33,26,88,64,38,30.33,30.07,25,6,25,0.01
2013-4-26,64,53,31,42,37,28,96,58,38,30.39,30.28,16,5,16,0.00
2013-4-27,71,61,39,48,40,31,99,50,25,30.31,30.03,14,4,14,0.00
2013-4-28,60,56,50,57,54,48,99,94,64,30.03,29.82,8,1,8,0.14
2013-4-29,73,61,49,59,54,49,99,79,51,29.94,29.85,14,4,14,0.01
2013-4-30,81,70,57,63,59,53,89,69,52,29.99,29.88,19,7,19,0.00
2013-5-1,85,75,57,61,57,54,94,56,38,30.16,30.00,14,4,14,0.00
2013-5-2,82,72,54,61,57,49,92,61,40,30.17,30.05,14,4,14,0.00
2013-5-3,79,69,49,63,54,46,93,63,44,30.08,29.94,17,4,17,0.00
2013-5-4,73,67,59,52,46,39,65,47,31,30.03,29.96,19,5,19,0.00
2013-5-5,74,68,53,52,47,42,75,48,36,30.02,29.96,19,4,19,0.00
2013-5-6,79,68,57,56,47,37,84,49,26,30.01,29.93,9,3,9,0.00
2013-5-7,78,68,52,57,54,51,98,63,43,30.03,29.95,11,2,11,0.00
2013-5-8,80,70,54,64,55,47,98,62,38,30.02,29.94,9,2,9,0.05
2013-5-9,81,69,50,60,54,44,99,62,28,29.98,29.88,17,3,17,0.00
2013-5-10,65,57,47,62,55,47,99,91,71,29.91,29.76,17,6,17,0.11
2013-5-11,56,48,41,52,44,35,99,87,58,29.97,29.81,27,5,27,0.04
2013-5-12,51,44,35,38,32,28,96,62,42,30.10,29.96,19,6,19,0.00
2013-5-13,61,50,33,37,28,21,98,48,23,30.16,30.06,16,3,16,0.00
2013-5-14,87,71,50,60,48,28,65,45,33,30.06,29.69,21,6,21,0.00
2013-5-15,82,77,68,64,54,47,80,47,31,29.82,29.64,18,6,18,0.00
2013-5-16,86,73,52,56,49,40,98,50,24,29.97,29.82,12,2,12,0.00
2013-5-17,83,71,57,56,50,44,76,49,36,30.06,29.97,15,4,15,0.00
2013-5-18,84,74,59,63,57,42,82,58,44,30.09,29.97,10,3,10,0.00
2013-5-19,88,78,59,66,62,53,81,57,43,30.00,29.82,11,3,11,0.00
2013-5-20,90,82,72,73,68,63,93,66,41,29.87,29.77,21,7,21,0.00
2013-5-21,85,76,64,70,66,63,99,74,54,29.81,29.70,18,6,18,0.45
2013-5-22,78,70,66,68,66,59,99,88,60,29.75,29.66,23,5,23,0.13
2013-5-23,66,54,46,61,52,45,99,96,83,30.17,29.73,13,5,13,0.01
2013-5-24,61,52,38,44,40,36,99,65,42,30.35,30.18,14,4,14,0.00
2013-5-25,69,60,39,49,44,38,99,59,35,30.36,30.24,10,2,10,0.00
2013-5-26,74,66,46,47,43,40,97,46,32,30.30,30.16,10,3,10,0.00
2013-5-27,63,55,52,57,53,38,99,93,42,30.17,29.91,13,4,13,0.46
2013-5-28,81,72,56,72,68,56,99,86,70,29.91,29.79,22,6,22,0.28
2013-5-29,85,76,62,75,68,62,99,77,56,29.99,29.83,17,5,17,0.11
2013-5-30,88,80,68,72,69,65,94,70,51,30.01,29.89,22,6,22,0.00
2013-5-31,79,72,66,71,68,63,99,88,74,29.94,29.76,15,6,15,0.25
2013-6-1,75,71,64,68,66,63,99,84,73,29.85,29.70,17,6,17,0.26
2013-6-2,67,58,48,65,51,43,98,78,65,30.00,29.70,15,6,15,0.00
2013-6-3,70,61,42,51,45,41,99,58,38,30.09,30.01,11,3,11,0.00
2013-6-4,77,66,46,54,50,45,99,59,37,30.17,30.08,11,2,11,0.00
2013-6-5,78,69,56,54,51,45,78,54,41,30.12,29.92,11,3,11,0.00
2013-6-6,74,66,59,58,54,45,82,65,47,29.95,29.83,11,4,11,0.00
2013-6-7,73,64,54,57,54,51,95,70,52,29.91,29.86,13,4,13,0.00
2013-6-8,78,69,51,58,55,51,99,63,44,30.01,29.90,9,2,9,0.00
2013-6-9,83,73,59,66,61,56,95,67,46,30.03,29.86,11,2,11,0.00
2013-6-10,76,70,65,71,67,64,99,92,77,29.87,29.75,11,3,11,0.66
2013-6-11,86,76,61,69,65,61,99,72,48,29.93,29.82,13,4,13,0.00
2013-6-12,88,77,68,77,72,67,99,86,64,29.90,29.63,8,2,8,0.45
2013-6-13,77,70,58,66,59,54,99,70,47,29.98,29.55,20,6,20,0.17
2013-6-14,81,70,55,62,59,54,99,70,41,30.09,29.97,11,3,11,0.00
2013-6-15,77,70,58,68,64,58,99,84,63,30.07,29.91,12,2,12,0.02
2013-6-16,84,78,66,70,66,58,99,67,46,29.91,29.86,13,4,13,0.07
2013-6-17,89,80,65,69,62,54,99,58,32,29.94,29.86,13,3,13,0.00
2013-6-18,76,69,62,65,60,52,98,76,56,30.04,29.87,12,4,12,0.01
2013-6-19,80,67,54,54,50,46,82,57,32,30.15,30.03,8,3,8,0.00
2013-6-20,86,76,56,66,59,52,95,58,37,30.17,30.11,10,2,10,0.00
2013-6-21,88,79,64,69,65,61,98,66,41,30.17,29.99,15,4,15,0.00
2013-6-22,87,79,69,76,72,67,93,81,66,30.09,29.98,9,4,9,0.00
2013-6-23,90,84,66,73,69,66,99,63,48,30.07,29.97,15,6,15,0.00
2013-6-24,87,80,68,73,70,65,99,74,49,30.08,29.92,24,5,24,0.02
2013-6-25,91,79,68,78,73,67,99,84,58,29.99,29.79,19,4,19,0.14
2013-6-26,85,73,66,75,70,66,99,92,62,29.91,29.73,22,3,22,1.38
2013-6-27,86,77,67,75,71,67,99,84,57,29.77,29.68,13,3,13,0.01
2013-6-28,81,74,66,71,65,61,99,75,53,29.69,29.59,17,4,17,0.09
2013-6-29,76,67,63,69,65,62,99,93,71,29.73,29.57,11,2,11,0.69
2013-6-30,81,70,62,66,62,57,98,78,48,29.94,29.73,18,4,18,0.06
2013-7-1,76,69,61,63,54,44,76,61,43,30.03,29.94,20,6,20,0.00
2013-7-2,68,63,59,67,62,55,99,95,69,30.04,30.00,11,3,11,0.02
2013-7-3,80,75,64,69,66,63,99,75,59,30.08,29.99,17,4,17,0.00
2013-7-4,80,73,61,68,64,61,99,74,54,30.13,30.06,10,2,10,0.00
2013-7-5,85,78,64,71,68,63,99,74,57,30.11,30.03,8,2,8,0.00
2013-7-6,81,75,68,74,70,68,99,85,70,30.09,29.99,9,2,9,0.00
2013-7-7,86,78,68,74,72,68,99,82,64,30.05,29.97,11,4,11,0.04
2013-7-8,79,75,71,75,72,70,99,92,82,30.02,29.96,11,3,11,0.09
2013-7-9,87,79,72,79,76,72,99,92,73,30.00,29.89,21,2,21,0.51
2013-7-10,84,78,65,80,70,56,99,78,51,29.99,29.84,15,4,15,0.00
2013-7-11,80,69,58,65,58,52,99,72,40,30.07,29.99,14,2,14,0.00
2013-7-12,82,73,57,66,60,55,99,67,41,30.14,30.06,12,2,12,0.00
2013-7-13,86,77,60,69,66,60,99,70,52,30.16,30.11,10,3,10,0.00
2013-7-14,90,83,67,74,71,67,99,70,51,30.21,30.16,10,3,10,0.00
2013-7-15,93,83,72,81,77,72,99,84,58,30.27,30.21,7,1,7,0.02
2013-7-16,93,84,74,77,74,70,99,75,50,30.32,30.25,10,2,10,0.00
2013-7-17,93,86,73,78,75,72,98,73,56,30.32,30.18,10,3,10,0.00
2013-7-18,94,86,74,78,75,72,99,73,55,30.19,29.99,14,3,14,0.00
2013-7-19,96,88,77,77,75,72,97,67,50,29.99,29.78,21,7,21,0.00
2013-7-20,89,83,75,77,67,59,91,62,44,29.92,29.78,9,4,9,0.01
2013-7-21,86,80,68,72,67,64,92,66,50,29.98,29.87,8,2,8,0.00
2013-7-22,85,76,66,71,69,65,99,80,58,29.93,29.77,11,3,11,0.69
2013-7-23,82,74,61,71,65,56,96,76,57,29.92,29.71,18,6,18,0.00
2013-7-24,75,66,53,58,53,50,96,66,47,30.03,29.94,11,3,11,0.00
2013-7-25,79,70,55,60,57,54,99,66,45,30.10,30.03,9,2,9,0.00
2013-7-26,78,70,59,67,62,58,99,78,54,30.06,29.89,15,4,15,0.08
2013-7-27,73,66,60,67,59,51,99,79,67,29.90,29.82,21,5,21,0.00
2013-7-28,69,60,53,54,52,50,92,76,57,29.99,29.85,14,5,14,0.00
2013-7-29,74,66,56,60,58,52,96,74,58,30.18,29.99,11,4,11,0.00
2013-7-30,80,70,54,65,60,53,99,72,50,30.20,30.09,11,2,11,0.00
2013-7-31,70,68,65,69,67,64,99,98,88,30.09,29.93,8,2,8,0.14
2013-8-1,80,73,61,69,60,53,99,68,42,29.96,29.93,15,4,15,0.00
2013-8-2,80,69,56,73,66,56,99,90,73,29.97,29.83,16,4,16,0.33
2013-8-3,80,73,63,69,59,50,99,63,39,30.07,29.93,14,4,14,0.00
2013-8-4,77,71,56,59,56,52,99,61,43,30.18,30.08,11,3,11,0.00
2013-8-5,74,68,53,64,60,52,99,78,60,30.13,29.93,10,2,10,0.00
2013-8-6,81,72,63,72,68,62,99,89,72,29.95,29.87,11,3,11,0.53
2013-8-7,80,73,68,75,71,66,99,94,83,29.92,29.83,17,2,17,0.38
2013-8-8,79,72,64,69,65,63,99,79,62,30.00,29.92,14,4,14,0.01
2013-8-9,82,74,62,66,62,59,97,70,46,30.02,29.96,7,2,9,0.00
2013-8-10,81,74,65,68,64,60,98,72,52,30.11,30.01,9,2,9,0.00
2013-8-11,81,75,59,65,60,56,99,63,47,30.12,30.04,10,2,10,0.00
2013-8-12,84,76,67,71,67,64,99,76,59,30.05,29.85,12,4,12,0.00
2013-8-13,70,64,56,66,54,49,99,70,50,30.10,29.89,16,4,16,0.00
2013-8-14,73,61,50,52,50,48,94,70,43,30.19,30.11,8,2,8,0.00
2013-8-15,76,65,48,57,54,48,99,70,46,30.17,30.09,8,2,8,0.00
2013-8-16,80,68,51,62,55,50,99,67,37,30.18,30.12,8,2,8,0.00
2013-8-17,81,72,55,63,58,54,99,66,44,30.23,30.16,11,3,11,0.00
2013-8-18,84,75,57,66,61,56,99,64,40,30.20,30.09,8,2,8,0.00
2013-8-19,86,72,59,68,63,59,99,74,45,30.12,30.04,11,2,11,0.00
2013-8-20,87,75,62,70,65,61,99,75,47,30.14,30.07,12,2,12,0.00
2013-8-21,89,80,66,72,68,65,99,71,47,30.12,29.99,13,4,13,0.00
2013-8-22,80,73,67,74,70,66,99,92,78,30.10,29.99,17,3,17,0.27
2013-8-23,83,73,63,68,58,48,99,64,33,30.17,30.07,11,3,11,0.00
2013-8-24,85,77,56,61,58,54,99,54,40,30.28,30.17,8,2,8,0.00
2013-8-25,89,81,58,68,64,58,99,59,43,30.28,30.15,13,4,13,0.00
2013-8-26,90,80,65,74,70,63,96,71,55,30.19,30.02,14,4,14,0.00
2013-8-27,93,84,74,77,74,71,95,74,53,30.02,29.87,17,4,17,0.00
2013-8-28,87,81,72,78,74,69,97,80,70,30.02,29.84,11,4,11,0.00
2013-8-29,90,78,66,74,69,66,99,75,46,30.07,29.99,8,2,8,0.00
2013-8-30,92,82,67,77,72,66,99,73,49,30.00,29.76,14,4,14,0.00
2013-8-31,82,76,70,75,72,69,99,86,68,29.86,29.77,8,2,8,0.00
2013-9-1,88,80,68,73,72,68,99,77,58,29.82,29.73,10,3,10,0.00
2013-9-2,79,73,63,72,63,57,99,74,51,29.94,29.76,15,5,15,0.00
2013-9-3,77,66,55,59,57,54,99,76,49,30.05,29.95,8,2,8,0.00
2013-9-4,82,70,53,62,56,52,99,65,40,30.11,30.03,14,3,14,0.00
2013-9-5,80,70,59,62,49,37,99,53,22,30.24,30.10,12,4,12,0.00
2013-9-6,84,69,51,61,55,49,97,64,33,30.24,30.05,9,2,9,0.00
2013-9-7,88,78,63,70,66,57,88,69,44,30.05,29.91,10,3,11,0.00
2013-9-8,78,74,66,70,67,64,99,79,67,30.04,29.94,11,3,11,0.00
2013-9-9,91,78,64,75,68,55,90,71,55,30.02,29.86,11,4,11,0.00
2013-9-10,97,88,75,75,69,64,93,57,35,30.03,29.90,16,5,16,0.00
2013-9-11,96,82,73,74,71,66,98,73,39,30.06,29.93,18,4,18,0.00
2013-9-12,84,72,62,71,62,51,99,76,35,30.01,29.87,11,4,11,0.02
2013-9-13,66,58,50,53,46,40,89,66,39,30.12,30.02,14,4,14,0.00
2013-9-14,72,62,41,48,42,37,99,52,29,30.18,30.06,9,2,9,0.00
2013-9-15,66,59,48,58,53,45,99,80,63,30.11,30.00,11,2,11,0.00
2013-9-16,69,60,52,56,52,47,99,78,47,30.31,30.12,10,4,10,0.00
2013-9-17,73,61,45,53,48,44,99,67,41,30.34,30.16,8,3,8,0.00
2013-9-18,82,70,54,62,56,49,94,65,34,30.17,29.97,13,3,13,0.00
2013-9-19,74,68,66,70,68,63,99,97,79,30.05,29.86,11,2,11,0.96
2013-9-20,74,71,65,73,69,60,98,92,82,29.88,29.76,13,4,13,0.01
2013-9-21,68,62,58,60,55,48,99,79,49,29.88,29.74,14,4,15,0.00
2013-9-22,66,59,48,53,47,44,99,67,46,30.05,29.90,12,3,12,0.00
2013-9-23,70,58,43,51,48,42,99,72,48,30.12,30.05,9,3,9,0.00
2013-9-24,71,60,45,51,48,44,99,68,43,30.09,29.94,10,2,10,0.00
2013-9-25,74,63,48,56,52,47,99,71,45,29.97,29.91,8,3,8,0.00
2013-9-26,80,65,48,57,50,44,99,65,29,30.09,29.95,9,2,9,0.00
2013-9-27,81,67,46,58,53,46,99,65,40,30.18,30.09,9,2,9,0.00
2013-9-28,83,71,52,60,56,51,99,62,37,30.14,29.96,15,4,15,0.00
2013-9-29,70,64,53,62,56,52,99,76,56,30.01,29.93,8,3,9,0.14
2013-9-30,75,62,47,59,53,47,99,75,47,30.00,29.91,12,2,12,0.00
2013-10-1,76,67,55,67,63,55,99,88,68,30.00,29.93,13,4,13,0.00
2013-10-2,83,73,65,67,59,50,99,66,37,30.08,29.96,8,2,8,0.00
2013-10-3,77,70,62,73,68,58,99,93,72,30.02,29.89,14,3,14,0.66
2013-10-4,81,73,64,74,70,63,99,89,72,30.00,29.92,11,2,11,0.19
2013-10-5,78,71,65,73,70,65,99,96,80,29.99,29.82,16,2,16,0.00
2013-10-6,68,59,51,68,56,42,99,89,68,29.84,29.69,14,3,14,0.02
2013-10-7,62,52,43,52,47,42,99,83,58,30.09,29.74,13,5,13,0.00
2013-10-8,74,60,44,54,50,43,99,71,43,30.22,30.10,11,2,11,0.00
2013-10-9,73,55,44,52,47,44,99,78,37,30.26,30.15,7,1,7,0.00
2013-10-10,76,62,44,57,50,44,99,70,39,30.18,30.08,8,1,8,0.00
2013-10-11,77,62,45,56,49,44,99,69,33,30.11,30.00,9,2,9,0.00
2013-10-12,80,70,50,65,58,50,99,70,41,30.11,29.99,14,3,14,0.01
2013-10-13,67,59,44,62,47,39,99,68,41,30.35,30.10,13,3,13,0.28
2013-10-14,66,54,40,49,45,40,99,75,49,30.37,30.19,12,2,12,0.00
2013-10-15,64,58,46,63,56,45,98,94,86,30.20,29.81,11,3,11,0.01
2013-10-16,62,51,46,61,48,45,98,87,83,29.92,29.82,14,5,14,0.00
2013-10-17,52,50,46,51,48,43,99,93,84,29.91,29.79,14,4,14,0.20
2013-10-18,62,50,37,49,44,37,99,81,53,29.94,29.85,14,4,14,0.00
2013-10-19,56,48,42,46,38,27,99,72,34,29.91,29.77,16,4,16,0.18
2013-10-20,63,56,41,46,43,39,94,61,46,29.90,29.79,17,5,17,0.00
2013-10-21,56,50,42,50,43,-2,96,77,10,29.91,29.81,15,5,15,0.00
2013-10-22,50,40,32,37,32,26,97,75,45,29.95,29.88,13,4,13,0.00
2013-10-23,47,38,34,42,35,30,99,90,61,29.97,29.83,16,3,16,0.02
2013-10-24,42,37,34,39,36,33,99,94,72,30.21,29.95,14,4,14,0.20
2013-10-25,50,41,31,39,31,25,99,70,40,30.34,30.09,17,4,17,0.05
2013-10-26,53,47,42,42,36,28,84,66,55,30.09,29.82,20,6,20,0.00
2013-10-27,56,48,31,40,33,28,99,58,36,30.05,29.97,17,3,17,0.00
2013-10-28,58,46,31,42,37,30,99,73,46,30.32,30.03,11,2,11,0.00
2013-10-29,56,46,34,44,39,33,98,79,58,30.36,30.17,9,2,9,0.00
2013-10-30,61,53,38,58,50,38,99,91,78,30.17,29.88,8,2,8,0.41
2013-10-31,64,61,54,63,60,53,99,98,97,30.29,29.22,23,7,23,1.32
2013-11-1,53,48,46,52,44,41,98,86,75,29.67,29.27,18,5,18,0.04
2013-11-2,47,45,42,44,41,38,96,86,74,30.06,29.88,16,4,16,0.05
2013-11-3,50,46,40,42,38,36,99,74,63,30.32,30.06,8,3,8,0.01
2013-11-4,52,48,38,43,38,34,89,69,56,30.33,30.18,13,4,13,0.00
2013-11-5,56,53,50,50,46,43,84,78,71,30.29,30.12,9,3,9,0.00
2013-11-6,58,51,42,55,50,41,99,96,63,30.04,29.80,22,8,22,0.40
2013-11-7,48,42,35,40,31,27,93,67,45,30.18,30.05,14,5,16,0.00
2013-11-8,48,42,32,34,31,28,94,67,50,30.28,30.07,10,3,10,0.00
2013-11-9,60,54,43,42,38,30,65,56,47,30.08,29.85,22,9,22,0.00
2013-11-10,48,42,34,35,31,27,82,64,52,30.27,29.98,16,5,16,0.00
2013-11-11,48,39,30,40,32,21,95,77,58,30.29,30.05,14,4,14,0.13
2013-11-12,34,29,23,26,20,15,84,68,55,30.56,30.36,14,3,14,0.00
2013-11-13,40,30,20,19,16,9,79,57,33,30.52,30.19,17,6,17,0.01
2013-11-14,52,42,30,25,21,17,65,44,29,30.18,29.97,21,7,21,0.00
2013-11-15,51,46,37,33,29,23,64,52,43,30.02,29.95,12,4,12,0.00
2013-11-16,58,54,40,57,50,32,97,86,65,29.99,29.69,19,8,19,0.08
2013-11-17,64,58,47,62,54,39,99,88,69,29.69,29.21,34,13,34,0.85
2013-11-18,47,40,36,39,31,-26,85,70,62,30.15,29.65,105,9,105,0.00
2013-11-19,46,38,30,27,25,22,78,60,45,30.32,30.15,9,3,9,0.00
2013-11-20,45,38,27,35,27,21,80,66,51,30.32,30.12,12,4,12,0.00
2013-11-21,49,46,40,45,43,36,97,88,72,30.19,30.12,12,3,12,0.45
2013-11-22,46,39,29,45,35,26,99,86,69,30.38,30.12,21,5,21,0.02
2013-11-23,32,24,18,26,16,11,88,69,46,30.54,30.30,24,7,24,0.01
2013-11-24,28,22,16,18,10,0,81,60,35,30.59,30.39,14,4,14,0.00
2013-11-25,32,27,18,26,16,2,88,63,46,30.37,30.07,21,8,21,0.00
2013-11-26,33,31,28,27,25,16,87,79,62,30.07,29.93,14,4,14,0.00
2013-11-27,28,25,21,22,19,14,83,76,63,30.19,29.97,13,4,13,0.00
2013-11-28,30,27,23,20,16,11,79,62,50,30.37,30.17,12,3,12,0.00
2013-11-29,38,32,27,20,18,15,69,57,43,30.58,30.38,9,2,9,0.02
2013-11-30,49,38,30,31,26,20,73,62,48,30.44,30.06,15,4,15,0.01
2013-12-1,45,38,28,36,29,23,85,70,54,30.06,29.97,9,2,9,0.00
2013-12-2,42,35,26,31,28,22,92,75,57,29.96,29.81,11,3,11,0.00
2013-12-3,48,42,34,46,40,30,98,93,85,29.81,29.72,9,4,9,0.13
2013-12-4,60,52,43,58,51,42,99,95,88,29.79,29.58,17,5,17,0.00
2013-12-5,60,34,29,56,25,-20,89,69,62,30.15,29.59,17,8,17,0.00
2013-12-6,29,26,24,19,15,10,67,62,55,30.36,30.14,11,5,11,0.00
2013-12-7,26,21,15,15,8,6,71,58,45,30.57,30.38,11,4,11,0.00
2013-12-8,26,23,14,22,15,7,87,70,54,30.50,29.93,14,5,14,0.00
2013-12-9,28,23,16,23,14,2,88,68,53,30.14,29.87,20,9,20,0.00
2013-12-10,24,16,3,8,1,-9,59,52,43,30.20,29.97,26,9,26,0.00
2013-12-11,26,18,13,18,9,1,85,69,51,30.42,30.22,17,5,17,0.00
2013-12-12,20,11,-2,6,-4,-14,67,51,33,30.44,30.19,19,6,19,0.00
2013-12-13,34,25,10,21,13,1,79,60,47,30.19,30.10,7,2,7,0.04
2013-12-14,27,23,21,22,19,16,88,85,80,30.12,29.82,14,5,14,0.00
2013-12-15,26,19,11,21,11,2,84,72,62,30.04,29.84,16,6,16,0.00
2013-12-16,22,16,6,12,7,-2,76,66,54,30.11,29.97,8,2,8,0.00
2013-12-17,29,23,18,24,18,11,86,79,70,30.00,29.89,14,6,14,0.00
2013-12-18,30,24,16,17,11,8,72,59,52,30.15,29.86,14,5,14,0.00
2013-12-19,44,40,30,37,33,18,96,78,61,29.93,29.82,9,3,9,0.09
2013-12-20,42,39,35,42,39,34,99,99,96,29.81,29.67,6,1,6,0.35
2013-12-21,36,34,33,35,34,32,99,98,96,29.80,29.54,19,4,19,0.48
2013-12-22,36,34,31,35,32,28,99,91,86,30.00,29.47,19,6,19,0.13
2013-12-23,31,23,10,28,13,-2,89,67,51,30.34,29.99,16,8,16,0.00
2013-12-24,21,14,5,8,4,-6,72,63,55,30.47,30.34,14,4,14,0.00
2013-12-25,26,24,16,24,18,8,90,76,63,30.39,30.04,19,6,19,0.00
2013-12-26,33,27,21,25,18,11,91,69,55,30.24,30.02,17,5,17,0.00
2013-12-27,43,38,31,32,30,25,82,73,64,30.26,30.08,17,6,17,0.04
2013-12-28,50,43,34,36,33,28,79,68,55,30.08,29.85,16,7,16,0.00
2013-12-29,42,33,23,32,26,17,86,77,65,30.02,29.73,21,7,21,0.00
2013-12-30,23,19,14,16,8,5,74,61,50,30.22,30.03,11,5,11,0.00
2013-12-31,17,15,13,9,5,-1,76,66,47,30.28,30.08,14,5,14,0.00
2014-1-1,18,16,13,10,8,6,77,72,65,30.25,30.11,16,6,17,0.00
2014-1-2,15,13,3,8,2,-10,75,61,45,30.28,30.01,17,7,17,0.00